Skip Navigation Links Skip Navigation Links

Current Weather

Pocono Mountains Muni, Mount Pocono, Penn.

For information only: do not use for flight planning or navigation.
Latest weather
Observation time Monday, June 21, 2021 8:01 PM EDT
Local time Monday, June 21, 2021 9:03 PM EDT
Flight conditions Visual Meteorological Conditions
Winds
Wind direction Southwest (220°)
Wind speed 12 mph
Visibility 10 mi.
Present weather light rain
Sky condition
Ceiling 11,000 ft. broken clouds
Cloud layer few clouds 900 ft.
Cloud layer scattered clouds 3,300 ft.
Cloud layer broken clouds 11,000 ft.
Temperature 71°F
Dewpoint 70°F
Altimeter 29.69 in.Hg
Precipitation
Precipitation last hour 0.01 in.
Derived measurements
Relative humidity 96%
Density altitude 3300 ft.
Remarks
Fully automated report.
Automated weather observing station with precipitation discriminator.
Lightning observed distant.
METAR KMPO 220001Z AUTO 22010KT 10SM -RA FEW009 SCT033 BKN110 22/21 A2969 RMK AO2 LTG DSNT ALQDS P0001 T02170211

Settings

Location code

InnerDrive.Weather 4.0.6770.0 Release CLR 4.0.30319.42000
Copyright ©2018 Inner Drive Technology. All rights reserved. Portions Copyright ©1986-2018 David Braverman.

Find weather

Site navigation


Skip Navigation Links

Place info

Page info

PayPal - The safer, easier way to pay online!

Return home.

Copyright ©2021 Inner Drive Technology. Purveyors of fine, hand-crafted computer software. Page printed 2021-06-22T01:03:50 UTC.